Time,TemperatureF,DewpointF,PressureIn,WindDirection,WindDirectionDegrees,WindSpeedMPH,WindSpeedGustMPH,Humidity,HourlyPrecipIn,Conditions,Clouds,dailyrainin,SolarRadiationWatts/m^2,SoftwareType,DateUTC
2013-04-05 00:00:00,54.1,53.0,30.11,SSW,196,0.0,3.0,95,0.00,,,0.00,0,weatherlink.com 1.10,2013-04-05 07:00:00,
2013-04-05 00:15:00,54.0,53.0,30.11,SSW,196,0.0,3.0,95,0.00,,,0.00,0,weatherlink.com 1.10,2013-04-05 07:15:00,
2013-04-05 00:30:00,53.9,53.0,30.11,SSW,196,0.0,3.0,95,0.00,,,0.00,0,weatherlink.com 1.10,2013-04-05 07:30:00,
2013-04-05 00:45:00,53.9,53.0,30.12,SSW,196,0.0,0.0,95,0.00,,,0.00,0,weatherlink.com 1.10,2013-04-05 07:45:00,
2013-04-05 01:00:00,53.9,53.0,30.12,SSW,196,0.0,4.0,95,0.00,,,0.00,0,weatherlink.com 1.10,2013-04-05 08:00:00,
2013-04-05 01:15:00,53.8,52.0,30.11,South,172,2.0,4.0,95,0.00,,,0.00,0,weatherlink.com 1.10,2013-04-05 08:15:00,
2013-04-05 01:30:00,53.8,52.0,30.11,South,171,1.0,4.0,95,0.00,,,0.00,0,weatherlink.com 1.10,2013-04-05 08:30:00,
2013-04-05 01:45:00,53.8,52.0,30.11,South,171,0.0,3.0,95,0.00,,,0.00,0,weatherlink.com 1.10,2013-04-05 08:45:00,
2013-04-05 02:00:00,53.7,52.0,30.11,South,171,0.0,3.0,95,0.00,,,0.00,0,weatherlink.com 1.10,2013-04-05 09:00:00,
2013-04-05 02:15:00,53.7,52.0,30.12,South,171,0.0,4.0,95,0.00,,,0.00,0,weatherlink.com 1.10,2013-04-05 09:15:00,
2013-04-05 02:30:00,53.8,52.0,30.12,South,171,0.0,3.0,95,0.00,,,0.00,0,weatherlink.com 1.10,2013-04-05 09:30:00,
2013-04-05 02:45:00,53.7,52.0,30.11,South,171,0.0,2.0,95,0.00,,,0.00,0,weatherlink.com 1.10,2013-04-05 09:45:00,
2013-04-05 03:01:00,53.7,52.0,30.12,South,171,0.0,2.0,95,0.00,,,0.00,0,weatherlink.com 1.10,2013-04-05 10:01:00,
2013-04-05 03:16:00,53.7,52.0,30.12,South,171,0.0,1.0,95,0.01,,,0.01,0,weatherlink.com 1.10,2013-04-05 10:16:00,
2013-04-05 03:31:00,53.6,52.0,30.12,South,171,0.0,1.0,95,0.01,,,0.01,0,weatherlink.com 1.10,2013-04-05 10:31:00,
2013-04-05 03:46:00,53.5,52.0,30.12,South,171,1.0,2.0,95,0.01,,,0.01,0,weatherlink.com 1.10,2013-04-05 10:46:00,
2013-04-05 04:01:00,53.2,52.0,30.11,South,171,0.0,3.0,95,0.01,,,0.01,0,weatherlink.com 1.10,2013-04-05 11:01:00,
2013-04-05 04:16:00,52.8,52.0,30.11,South,171,1.0,3.0,95,0.00,,,0.01,0,weatherlink.com 1.10,2013-04-05 11:16:00,
2013-04-05 04:31:00,52.4,51.0,30.11,South,171,0.0,3.0,95,0.00,,,0.01,0,weatherlink.com 1.10,2013-04-05 11:31:00,
2013-04-05 04:46:00,52.0,51.0,30.11,South,171,0.0,0.0,95,0.00,,,0.01,0,weatherlink.com 1.10,2013-04-05 11:46:00,
2013-04-05 05:01:00,51.7,50.0,30.11,South,171,0.0,3.0,95,0.00,,,0.01,0,weatherlink.com 1.10,2013-04-05 12:01:00,
2013-04-05 05:16:00,50.7,49.0,30.11,South,171,0.0,1.0,95,0.00,,,0.01,0,weatherlink.com 1.10,2013-04-05 12:16:00,
2013-04-05 05:31:00,50.5,49.0,30.11,South,171,0.0,1.0,95,0.00,,,0.01,0,weatherlink.com 1.10,2013-04-05 12:31:00,
2013-04-05 06:01:00,49.9,49.0,30.11,South,171,0.0,3.0,95,0.00,,,0.01,0,weatherlink.com 1.10,2013-04-05 13:01:00,
2013-04-05 06:16:00,50.0,49.0,30.11,South,171,0.0,1.0,95,0.00,,,0.01,0,weatherlink.com 1.10,2013-04-05 13:16:00,
2013-04-05 06:31:00,49.7,48.0,30.11,South,171,0.0,0.0,95,0.00,,,0.01,0,weatherlink.com 1.10,2013-04-05 13:31:00,
2013-04-05 06:46:00,49.6,48.0,30.12,South,171,0.0,0.0,95,0.00,,,0.01,0,weatherlink.com 1.10,2013-04-05 13:46:00,
2013-04-05 07:01:00,49.5,48.0,30.12,South,171,0.0,1.0,95,0.00,,,0.01,11,weatherlink.com 1.10,2013-04-05 14:01:00,
2013-04-05 07:16:00,49.8,49.0,30.12,South,171,0.0,0.0,96,0.00,,,0.01,30,weatherlink.com 1.10,2013-04-05 14:16:00,
2013-04-05 07:31:00,49.9,49.0,30.13,South,171,0.0,1.0,95,0.00,,,0.01,37,weatherlink.com 1.10,2013-04-05 14:31:00,
2013-04-05 08:01:00,50.9,50.0,30.14,South,171,0.0,0.0,96,0.00,,,0.01,79,weatherlink.com 1.10,2013-04-05 15:01:00,
2013-04-05 08:16:00,51.3,50.0,30.14,South,171,0.0,0.0,96,0.00,,,0.01,86,weatherlink.com 1.10,2013-04-05 15:16:00,
2013-04-05 08:31:00,52.1,51.0,30.15,South,171,0.0,1.0,96,0.00,,,0.01,100,weatherlink.com 1.10,2013-04-05 15:31:00,
2013-04-05 08:46:00,52.7,52.0,30.14,South,171,0.0,0.0,96,0.00,,,0.01,139,weatherlink.com 1.10,2013-04-05 15:46:00,
2013-04-05 09:01:00,53.6,53.0,30.14,South,171,0.0,0.0,96,0.00,,,0.01,158,weatherlink.com 1.10,2013-04-05 16:01:00,
2013-04-05 09:16:00,54.0,53.0,30.15,South,171,0.0,1.0,96,0.00,,,0.01,127,weatherlink.com 1.10,2013-04-05 16:16:00,
2013-04-05 09:31:00,54.2,53.0,30.15,South,171,0.0,0.0,96,0.00,,,0.01,171,weatherlink.com 1.10,2013-04-05 16:31:00,
2013-04-05 09:46:00,54.6,53.0,30.15,South,171,0.0,1.0,95,0.00,,,0.01,153,weatherlink.com 1.10,2013-04-05 16:46:00,
2013-04-05 10:01:00,54.1,53.0,30.15,South,171,0.0,1.0,95,0.00,,,0.01,246,weatherlink.com 1.10,2013-04-05 17:01:00,
2013-04-05 10:16:00,56.3,54.0,30.16,South,171,0.0,1.0,92,0.00,,,0.01,271,weatherlink.com 1.10,2013-04-05 17:16:00,
2013-04-05 10:32:00,56.6,54.0,30.16,SW,217,0.0,4.0,91,0.00,,,0.01,149,weatherlink.com 1.10,2013-04-05 17:32:00,
2013-04-05 10:47:00,56.9,54.0,30.17,SW,217,0.0,2.0,90,0.00,,,0.01,214,weatherlink.com 1.10,2013-04-05 17:47:00,
2013-04-05 11:02:00,57.4,55.0,30.17,SSW,201,0.0,1.0,90,0.00,,,0.01,278,weatherlink.com 1.10,2013-04-05 18:02:00,
2013-04-05 11:17:00,57.4,54.0,30.17,SSE,164,0.0,3.0,89,0.00,,,0.01,171,weatherlink.com 1.10,2013-04-05 18:17:00,
2013-04-05 11:32:00,56.7,54.0,30.18,WSW,246,7.0,9.0,91,0.00,,,0.01,306,weatherlink.com 1.10,2013-04-05 18:32:00,
2013-04-05 11:47:00,57.1,54.0,30.18,SW,226,3.0,8.0,89,0.00,,,0.01,376,weatherlink.com 1.10,2013-04-05 18:47:00,
2013-04-05 12:02:00,58.6,55.0,30.18,SW,221,0.0,9.0,87,0.01,,,0.02,543,weatherlink.com 1.10,2013-04-05 19:02:00,
2013-04-05 12:17:00,58.6,54.0,30.18,SSW,213,1.0,11.0,84,0.01,,,0.02,429,weatherlink.com 1.10,2013-04-05 19:17:00,
2013-04-05 12:32:00,58.4,54.0,30.17,WSW,254,4.0,10.0,84,0.01,,,0.02,466,weatherlink.com 1.10,2013-04-05 19:32:00,
2013-04-05 12:47:00,58.7,54.0,30.16,WSW,242,3.0,7.0,84,0.01,,,0.02,339,weatherlink.com 1.10,2013-04-05 19:47:00,
2013-04-05 13:02:00,59.0,54.0,30.16,West,262,2.0,7.0,84,0.00,,,0.02,540,weatherlink.com 1.10,2013-04-05 20:02:00,
2013-04-05 13:17:00,59.3,54.0,30.15,SW,225,0.0,10.0,81,0.00,,,0.02,469,weatherlink.com 1.10,2013-04-05 20:17:00,
2013-04-05 13:32:00,60.3,54.0,30.15,SSE,150,1.0,8.0,80,0.00,,,0.02,872,weatherlink.com 1.10,2013-04-05 20:32:00,
2013-04-05 13:47:00,60.1,53.0,30.14,SW,217,0.0,9.0,77,0.00,,,0.02,580,weatherlink.com 1.10,2013-04-05 20:47:00,
2013-04-05 14:02:00,60.5,54.0,30.14,WSW,246,5.0,12.0,78,0.00,,,0.02,650,weatherlink.com 1.10,2013-04-05 21:02:00,
2013-04-05 14:17:00,60.5,54.0,30.14,South,184,4.0,12.0,80,0.00,,,0.02,735,weatherlink.com 1.10,2013-04-05 21:17:00,
2013-04-05 14:32:00,60.0,52.0,30.14,WSW,253,3.0,13.0,76,0.00,,,0.02,424,weatherlink.com 1.10,2013-04-05 21:32:00,
2013-04-05 14:47:00,61.1,54.0,30.14,WNW,286,8.0,13.0,78,0.00,,,0.02,860,weatherlink.com 1.10,2013-04-05 21:47:00,
2013-04-05 15:02:00,61.2,53.0,30.14,NW,311,6.0,11.0,75,0.00,,,0.02,800,weatherlink.com 1.10,2013-04-05 22:02:00,
2013-04-05 15:17:00,61.6,52.0,30.14,SW,217,7.0,10.0,72,0.00,,,0.02,561,weatherlink.com 1.10,2013-04-05 22:17:00,
2013-04-05 15:32:00,61.3,54.0,30.14,SSW,213,11.0,11.0,77,0.00,,,0.02,881,weatherlink.com 1.10,2013-04-05 22:32:00,
2013-04-05 15:47:00,61.0,53.0,30.13,WNW,294,0.0,10.0,75,0.00,,,0.02,698,weatherlink.com 1.10,2013-04-05 22:47:00,
2013-04-05 16:02:00,60.5,53.0,30.13,WSW,237,0.0,10.0,75,0.00,,,0.02,285,weatherlink.com 1.10,2013-04-05 23:02:00,
2013-04-05 16:17:00,60.9,53.0,30.12,WSW,240,3.0,8.0,75,0.00,,,0.02,490,weatherlink.com 1.10,2013-04-05 23:17:00,
2013-04-05 16:32:00,62.1,53.0,30.13,South,186,6.0,10.0,72,0.00,,,0.02,680,weatherlink.com 1.10,2013-04-05 23:32:00,
2013-04-05 16:47:00,61.1,53.0,30.14,WSW,243,5.0,11.0,75,0.00,,,0.02,383,weatherlink.com 1.10,2013-04-05 23:47:00,
2013-04-05 17:02:00,60.4,52.0,30.12,WSW,248,0.0,10.0,74,0.00,,,0.02,144,weatherlink.com 1.10,2013-04-06 00:02:00,
2013-04-05 17:17:00,59.8,53.0,30.11,WSW,253,3.0,6.0,77,0.00,,,0.02,200,weatherlink.com 1.10,2013-04-06 00:17:00,
2013-04-05 17:32:00,59.4,53.0,30.12,SW,220,6.0,9.0,78,0.00,,,0.02,197,weatherlink.com 1.10,2013-04-06 00:32:00,
2013-04-05 17:47:00,59.2,53.0,30.12,WSW,240,5.0,7.0,80,0.00,,,0.02,202,weatherlink.com 1.10,2013-04-06 00:47:00,
2013-04-05 18:02:00,58.6,52.0,30.14,WSW,248,8.0,16.0,80,0.00,,,0.02,137,weatherlink.com 1.10,2013-04-06 01:02:00,
2013-04-05 18:32:00,57.0,52.0,30.12,WSW,246,2.0,10.0,83,0.00,,,0.02,132,weatherlink.com 1.10,2013-04-06 01:32:00,
2013-04-05 18:47:00,56.4,51.0,30.12,SW,234,6.0,11.0,83,0.00,,,0.02,84,weatherlink.com 1.10,2013-04-06 01:47:00,
2013-04-05 19:02:00,55.7,51.0,30.12,SW,232,4.0,11.0,84,0.00,,,0.02,46,weatherlink.com 1.10,2013-04-06 02:02:00,
2013-04-05 19:17:00,55.1,51.0,30.12,WSW,237,2.0,9.0,86,0.00,,,0.02,23,weatherlink.com 1.10,2013-04-06 02:17:00,
2013-04-05 19:32:00,54.5,51.0,30.13,West,273,3.0,8.0,87,0.00,,,0.02,7,weatherlink.com 1.10,2013-04-06 02:32:00,
2013-04-05 19:47:00,54.1,51.0,30.13,WSW,238,4.0,10.0,88,0.00,,,0.02,0,weatherlink.com 1.10,2013-04-06 02:47:00,
2013-04-05 20:02:00,53.7,50.0,30.13,West,259,3.0,9.0,88,0.00,,,0.02,0,weatherlink.com 1.10,2013-04-06 03:02:00,
2013-04-05 20:17:00,53.8,51.0,30.14,SW,229,1.0,11.0,89,0.00,,,0.02,0,weatherlink.com 1.10,2013-04-06 03:17:00,
2013-04-05 20:32:00,53.6,51.0,30.14,SW,216,1.0,7.0,89,0.00,,,0.02,0,weatherlink.com 1.10,2013-04-06 03:32:00,
2013-04-05 20:47:00,53.4,50.0,30.14,West,263,4.0,8.0,89,0.00,,,0.02,0,weatherlink.com 1.10,2013-04-06 03:47:00,
2013-04-05 21:02:00,53.2,50.0,30.14,WNW,284,0.0,4.0,89,0.00,,,0.02,0,weatherlink.com 1.10,2013-04-06 04:02:00,
2013-04-05 21:17:00,53.0,50.0,30.15,WSW,237,0.0,5.0,90,0.00,,,0.02,0,weatherlink.com 1.10,2013-04-06 04:17:00,
2013-04-05 21:32:00,52.9,50.0,30.16,WSW,237,0.0,0.0,90,0.00,,,0.02,0,weatherlink.com 1.10,2013-04-06 04:32:00,
2013-04-05 21:47:00,52.8,50.0,30.17,WSW,237,0.0,1.0,91,0.00,,,0.02,0,weatherlink.com 1.10,2013-04-06 04:47:00,
2013-04-05 22:02:00,52.9,50.0,30.17,WSW,237,0.0,3.0,91,0.00,,,0.02,0,weatherlink.com 1.10,2013-04-06 05:02:00,
2013-04-05 22:17:00,52.6,50.0,30.17,NNW,348,0.0,0.0,91,0.00,,,0.02,0,weatherlink.com 1.10,2013-04-06 05:17:00,
2013-04-05 22:32:00,52.3,50.0,30.17,NNW,348,0.0,1.0,91,0.00,,,0.02,0,weatherlink.com 1.10,2013-04-06 05:32:00,
2013-04-05 22:47:00,52.1,50.0,30.17,West,259,0.0,3.0,92,0.00,,,0.02,0,weatherlink.com 1.10,2013-04-06 05:47:00,
2013-04-05 23:02:00,51.7,50.0,30.17,South,173,0.0,3.0,93,0.00,,,0.02,0,weatherlink.com 1.10,2013-04-06 06:02:00,
2013-04-05 23:17:00,51.8,50.0,30.16,SSW,202,0.0,3.0,93,0.00,,,0.02,0,weatherlink.com 1.10,2013-04-06 06:17:00,
2013-04-05 23:32:00,52.3,50.0,30.17,SSW,199,0.0,1.0,93,0.00,,,0.02,0,weatherlink.com 1.10,2013-04-06 06:32:00,
2013-04-05 23:47:00,52.5,51.0,30.16,WSW,252,0.0,5.0,93,0.00,,,0.02,0,weatherlink.com 1.10,2013-04-06 06:47:00,